sensor_id;sensor_type;location;lat;lon;timestamp;P1;P2;P0
42410;PMS5003;28056;51.112;0.984;2023-05-10T00:04:56;6;6;
42410;PMS5003;28056;51.112;0.984;2023-05-10T00:07:23;12;11;
42410;PMS5003;28056;51.112;0.984;2023-05-10T00:09:50;19;9;
42410;PMS5003;28056;51.112;0.984;2023-05-10T00:12:18;13;12;
42410;PMS5003;28056;51.112;0.984;2023-05-10T00:14:46;11;11;
42410;PMS5003;28056;51.112;0.984;2023-05-10T00:17:13;12;9;
42410;PMS5003;28056;51.112;0.984;2023-05-10T00:19:40;13;13;
42410;PMS5003;28056;51.112;0.984;2023-05-10T00:22:08;13;12;
42410;PMS5003;28056;51.112;0.984;2023-05-10T00:24:35;16;16;
42410;PMS5003;28056;51.112;0.984;2023-05-10T00:27:03;13;9;
42410;PMS5003;28056;51.112;0.984;2023-05-10T00:29:30;22;16;
42410;PMS5003;28056;51.112;0.984;2023-05-10T00:31:58;13;13;
42410;PMS5003;28056;51.112;0.984;2023-05-10T00:34:24;18;16;
42410;PMS5003;28056;51.112;0.984;2023-05-10T00:36:52;29;22;
42410;PMS5003;28056;51.112;0.984;2023-05-10T00:39:19;17;14;
42410;PMS5003;28056;51.112;0.984;2023-05-10T00:41:46;24;24;
42410;PMS5003;28056;51.112;0.984;2023-05-10T00:44:14;24;17;
42410;PMS5003;28056;51.112;0.984;2023-05-10T00:46:41;19;18;
42410;PMS5003;28056;51.112;0.984;2023-05-10T00:49:08;18;18;
42410;PMS5003;28056;51.112;0.984;2023-05-10T00:51:36;22;19;
42410;PMS5003;28056;51.112;0.984;2023-05-10T00:54:03;22;18;
42410;PMS5003;28056;51.112;0.984;2023-05-10T00:56:30;17;17;
42410;PMS5003;28056;51.112;0.984;2023-05-10T00:58:58;28;23;
42410;PMS5003;28056;51.112;0.984;2023-05-10T01:01:26;17;16;
42410;PMS5003;28056;51.112;0.984;2023-05-10T01:03:54;19;19;
42410;PMS5003;28056;51.112;0.984;2023-05-10T01:06:21;21;16;
42410;PMS5003;28056;51.112;0.984;2023-05-10T01:08:48;25;24;
42410;PMS5003;28056;51.112;0.984;2023-05-10T01:11:16;19;17;
42410;PMS5003;28056;51.112;0.984;2023-05-10T01:13:44;17;14;
42410;PMS5003;28056;51.112;0.984;2023-05-10T01:16:19;18;16;
42410;PMS5003;28056;51.112;0.984;2023-05-10T01:18:47;19;17;
42410;PMS5003;28056;51.112;0.984;2023-05-10T01:21:19;14;13;
42410;PMS5003;28056;51.112;0.984;2023-05-10T01:24:15;18;14;
42410;PMS5003;28056;51.112;0.984;2023-05-10T01:27:13;21;18;
42410;PMS5003;28056;51.112;0.984;2023-05-10T01:29:54;16;13;
42410;PMS5003;28056;51.112;0.984;2023-05-10T01:32:36;16;16;
42410;PMS5003;28056;51.112;0.984;2023-05-10T01:35:12;18;18;
42410;PMS5003;28056;51.112;0.984;2023-05-10T01:37:45;17;16;
42410;PMS5003;28056;51.112;0.984;2023-05-10T01:40:19;19;18;
42410;PMS5003;28056;51.112;0.984;2023-05-10T01:42:54;21;14;
42410;PMS5003;28056;51.112;0.984;2023-05-10T01:45:30;16;14;
42410;PMS5003;28056;51.112;0.984;2023-05-10T01:48:05;18;16;
42410;PMS5003;28056;51.112;0.984;2023-05-10T01:50:34;19;17;
42410;PMS5003;28056;51.112;0.984;2023-05-10T01:53:05;21;16;
42410;PMS5003;28056;51.112;0.984;2023-05-10T01:55:34;14;14;
42410;PMS5003;28056;51.112;0.984;2023-05-10T01:58:06;19;16;
42410;PMS5003;28056;51.112;0.984;2023-05-10T02:00:36;19;18;
42410;PMS5003;28056;51.112;0.984;2023-05-10T02:03:09;18;18;
42410;PMS5003;28056;51.112;0.984;2023-05-10T02:05:38;18;14;
42410;PMS5003;28056;51.112;0.984;2023-05-10T02:08:06;18;16;
42410;PMS5003;28056;51.112;0.984;2023-05-10T02:10:34;17;17;
42410;PMS5003;28056;51.112;0.984;2023-05-10T02:13:03;14;14;
42410;PMS5003;28056;51.112;0.984;2023-05-10T02:15:31;13;13;
42410;PMS5003;28056;51.112;0.984;2023-05-10T02:18:01;16;14;
42410;PMS5003;28056;51.112;0.984;2023-05-10T02:20:30;16;14;
42410;PMS5003;28056;51.112;0.984;2023-05-10T02:22:58;16;16;
42410;PMS5003;28056;51.112;0.984;2023-05-10T02:25:27;18;14;
42410;PMS5003;28056;51.112;0.984;2023-05-10T02:27:56;22;17;
42410;PMS5003;28056;51.112;0.984;2023-05-10T02:30:26;16;16;
42410;PMS5003;28056;51.112;0.984;2023-05-10T02:32:54;18;18;
42410;PMS5003;28056;51.112;0.984;2023-05-10T02:35:23;19;17;
42410;PMS5003;28056;51.112;0.984;2023-05-10T02:37:52;19;19;
42410;PMS5003;28056;51.112;0.984;2023-05-10T02:40:20;16;13;
42410;PMS5003;28056;51.112;0.984;2023-05-10T02:42:50;14;14;
42410;PMS5003;28056;51.112;0.984;2023-05-10T02:45:22;18;16;
42410;PMS5003;28056;51.112;0.984;2023-05-10T02:47:54;19;14;
42410;PMS5003;28056;51.112;0.984;2023-05-10T02:50:22;17;16;
42410;PMS5003;28056;51.112;0.984;2023-05-10T02:52:55;16;13;
42410;PMS5003;28056;51.112;0.984;2023-05-10T02:55:32;14;14;
42410;PMS5003;28056;51.112;0.984;2023-05-10T02:58:03;16;13;
42410;PMS5003;28056;51.112;0.984;2023-05-10T03:00:31;18;16;
42410;PMS5003;28056;51.112;0.984;2023-05-10T03:02:58;17;13;
42410;PMS5003;28056;51.112;0.984;2023-05-10T03:05:26;19;18;
42410;PMS5003;28056;51.112;0.984;2023-05-10T03:07:54;16;16;
42410;PMS5003;28056;51.112;0.984;2023-05-10T03:10:22;13;13;
42410;PMS5003;28056;51.112;0.984;2023-05-10T03:12:59;22;19;
42410;PMS5003;28056;51.112;0.984;2023-05-10T03:15:35;21;17;
42410;PMS5003;28056;51.112;0.984;2023-05-10T03:18:09;14;13;
42410;PMS5003;28056;51.112;0.984;2023-05-10T03:20:42;24;18;
42410;PMS5003;28056;51.112;0.984;2023-05-10T03:23:19;23;19;
42410;PMS5003;28056;51.112;0.984;2023-05-10T03:25:51;22;18;
42410;PMS5003;28056;51.112;0.984;2023-05-10T03:28:20;23;21;
42410;PMS5003;28056;51.112;0.984;2023-05-10T03:30:48;19;16;
42410;PMS5003;28056;51.112;0.984;2023-05-10T03:33:18;19;18;
42410;PMS5003;28056;51.112;0.984;2023-05-10T03:35:45;18;18;
42410;PMS5003;28056;51.112;0.984;2023-05-10T03:38:12;25;25;
42410;PMS5003;28056;51.112;0.984;2023-05-10T03:40:39;18;16;
42410;PMS5003;28056;51.112;0.984;2023-05-10T03:43:07;24;20;
42410;PMS5003;28056;51.112;0.984;2023-05-10T03:45:34;28;22;
42410;PMS5003;28056;51.112;0.984;2023-05-10T03:48:02;22;22;
42410;PMS5003;28056;51.112;0.984;2023-05-10T03:50:29;22;19;
42410;PMS5003;28056;51.112;0.984;2023-05-10T03:52:56;18;18;
42410;PMS5003;28056;51.112;0.984;2023-05-10T03:55:24;18;17;
42410;PMS5003;28056;51.112;0.984;2023-05-10T03:57:52;22;19;
42410;PMS5003;28056;51.112;0.984;2023-05-10T04:00:19;22;22;
42410;PMS5003;28056;51.112;0.984;2023-05-10T04:02:46;23;23;
42410;PMS5003;28056;51.112;0.984;2023-05-10T04:05:14;25;23;
42410;PMS5003;28056;51.112;0.984;2023-05-10T04:07:42;24;17;
42410;PMS5003;28056;51.112;0.984;2023-05-10T04:10:09;21;17;
42410;PMS5003;28056;51.112;0.984;2023-05-10T04:12:38;27;24;
42410;PMS5003;28056;51.112;0.984;2023-05-10T04:15:06;23;22;
42410;PMS5003;28056;51.112;0.984;2023-05-10T04:17:34;17;17;
42410;PMS5003;28056;51.112;0.984;2023-05-10T04:20:02;19;19;
42410;PMS5003;28056;51.112;0.984;2023-05-10T04:22:31;18;18;
42410;PMS5003;28056;51.112;0.984;2023-05-10T04:24:59;20;19;
42410;PMS5003;28056;51.112;0.984;2023-05-10T04:27:26;25;20;
42410;PMS5003;28056;51.112;0.984;2023-05-10T04:29:53;18;16;
42410;PMS5003;28056;51.112;0.984;2023-05-10T04:32:21;28;19;
42410;PMS5003;28056;51.112;0.984;2023-05-10T04:34:48;18;17;
42410;PMS5003;28056;51.112;0.984;2023-05-10T04:37:16;22;20;
42410;PMS5003;28056;51.112;0.984;2023-05-10T04:39:43;20;18;
42410;PMS5003;28056;51.112;0.984;2023-05-10T04:42:10;18;15;
42410;PMS5003;28056;51.112;0.984;2023-05-10T04:44:38;23;22;
42410;PMS5003;28056;51.112;0.984;2023-05-10T04:47:05;17;17;
42410;PMS5003;28056;51.112;0.984;2023-05-10T04:49:33;22;21;
42410;PMS5003;28056;51.112;0.984;2023-05-10T04:52:01;20;19;
42410;PMS5003;28056;51.112;0.984;2023-05-10T04:54:28;20;20;
42410;PMS5003;28056;51.112;0.984;2023-05-10T04:56:56;23;20;
42410;PMS5003;28056;51.112;0.984;2023-05-10T04:59:24;23;22;
42410;PMS5003;28056;51.112;0.984;2023-05-10T05:01:51;28;23;
42410;PMS5003;28056;51.112;0.984;2023-05-10T05:04:19;21;19;
42410;PMS5003;28056;51.112;0.984;2023-05-10T05:06:46;20;19;
42410;PMS5003;28056;51.112;0.984;2023-05-10T05:09:13;21;19;
42410;PMS5003;28056;51.112;0.984;2023-05-10T05:11:41;24;20;
42410;PMS5003;28056;51.112;0.984;2023-05-10T05:14:09;23;18;
42410;PMS5003;28056;51.112;0.984;2023-05-10T05:16:36;20;17;
42410;PMS5003;28056;51.112;0.984;2023-05-10T05:19:03;17;13;
42410;PMS5003;28056;51.112;0.984;2023-05-10T05:21:30;16;16;
42410;PMS5003;28056;51.112;0.984;2023-05-10T05:23:58;16;16;
42410;PMS5003;28056;51.112;0.984;2023-05-10T05:26:26;18;14;
42410;PMS5003;28056;51.112;0.984;2023-05-10T05:28:53;23;16;
42410;PMS5003;28056;51.112;0.984;2023-05-10T05:31:21;16;14;
42410;PMS5003;28056;51.112;0.984;2023-05-10T05:33:48;15;14;
42410;PMS5003;28056;51.112;0.984;2023-05-10T05:36:15;15;13;
42410;PMS5003;28056;51.112;0.984;2023-05-10T05:38:43;16;13;
42410;PMS5003;28056;51.112;0.984;2023-05-10T05:41:11;17;15;
42410;PMS5003;28056;51.112;0.984;2023-05-10T05:43:38;14;13;
42410;PMS5003;28056;51.112;0.984;2023-05-10T05:46:05;23;23;
42410;PMS5003;28056;51.112;0.984;2023-05-10T05:48:33;13;11;
42410;PMS5003;28056;51.112;0.984;2023-05-10T05:51:01;14;13;
42410;PMS5003;28056;51.112;0.984;2023-05-10T05:53:29;14;14;
42410;PMS5003;28056;51.112;0.984;2023-05-10T05:55:58;14;12;
42410;PMS5003;28056;51.112;0.984;2023-05-10T05:58:25;15;14;
42410;PMS5003;28056;51.112;0.984;2023-05-10T06:00:54;14;12;
42410;PMS5003;28056;51.112;0.984;2023-05-10T06:03:21;13;10;
42410;PMS5003;28056;51.112;0.984;2023-05-10T06:05:49;14;12;
42410;PMS5003;28056;51.112;0.984;2023-05-10T06:08:16;18;10;
42410;PMS5003;28056;51.112;0.984;2023-05-10T06:10:44;11;11;
42410;PMS5003;28056;51.112;0.984;2023-05-10T06:13:11;10;10;
42410;PMS5003;28056;51.112;0.984;2023-05-10T06:15:39;9;9;
42410;PMS5003;28056;51.112;0.984;2023-05-10T06:18:07;13;9;
42410;PMS5003;28056;51.112;0.984;2023-05-10T06:20:34;9;8;
42410;PMS5003;28056;51.112;0.984;2023-05-10T06:23:01;15;12;
42410;PMS5003;28056;51.112;0.984;2023-05-10T06:25:29;15;12;
42410;PMS5003;28056;51.112;0.984;2023-05-10T06:27:56;14;13;
42410;PMS5003;28056;51.112;0.984;2023-05-10T06:30:24;13;13;
42410;PMS5003;28056;51.112;0.984;2023-05-10T06:32:51;10;10;
42410;PMS5003;28056;51.112;0.984;2023-05-10T06:35:19;13;13;
42410;PMS5003;28056;51.112;0.984;2023-05-10T06:37:46;8;8;
42410;PMS5003;28056;51.112;0.984;2023-05-10T06:40:13;9;9;
42410;PMS5003;28056;51.112;0.984;2023-05-10T06:42:41;18;15;
42410;PMS5003;28056;51.112;0.984;2023-05-10T06:45:08;13;12;
42410;PMS5003;28056;51.112;0.984;2023-05-10T06:47:37;13;10;
42410;PMS5003;28056;51.112;0.984;2023-05-10T06:50:05;10;10;
42410;PMS5003;28056;51.112;0.984;2023-05-10T06:52:33;13;9;
42410;PMS5003;28056;51.112;0.984;2023-05-10T06:55:00;8;8;
42410;PMS5003;28056;51.112;0.984;2023-05-10T06:57:28;7;6;
42410;PMS5003;28056;51.112;0.984;2023-05-10T06:59:55;9;7;
42410;PMS5003;28056;51.112;0.984;2023-05-10T07:02:23;10;9;
42410;PMS5003;28056;51.112;0.984;2023-05-10T07:04:51;9;8;
42410;PMS5003;28056;51.112;0.984;2023-05-10T07:07:19;6;6;
42410;PMS5003;28056;51.112;0.984;2023-05-10T07:09:46;8;8;
42410;PMS5003;28056;51.112;0.984;2023-05-10T07:12:14;9;6;
42410;PMS5003;28056;51.112;0.984;2023-05-10T07:14:42;6;6;
42410;PMS5003;28056;51.112;0.984;2023-05-10T07:17:10;7;7;
42410;PMS5003;28056;51.112;0.984;2023-05-10T07:19:37;8;8;
42410;PMS5003;28056;51.112;0.984;2023-05-10T07:22:05;9;7;
42410;PMS5003;28056;51.112;0.984;2023-05-10T07:24:33;10;8;
42410;PMS5003;28056;51.112;0.984;2023-05-10T07:27:01;9;7;
42410;PMS5003;28056;51.112;0.984;2023-05-10T07:29:28;8;7;
42410;PMS5003;28056;51.112;0.984;2023-05-10T07:31:55;7;7;
42410;PMS5003;28056;51.112;0.984;2023-05-10T07:34:23;5;5;
42410;PMS5003;28056;51.112;0.984;2023-05-10T07:36:50;5;5;
42410;PMS5003;28056;51.112;0.984;2023-05-10T07:39:17;6;6;
42410;PMS5003;28056;51.112;0.984;2023-05-10T07:41:44;8;5;
42410;PMS5003;28056;51.112;0.984;2023-05-10T07:44:12;5;5;
42410;PMS5003;28056;51.112;0.984;2023-05-10T07:46:40;5;5;
42410;PMS5003;28056;51.112;0.984;2023-05-10T07:49:08;5;4;
42410;PMS5003;28056;51.112;0.984;2023-05-10T07:51:35;5;5;
42410;PMS5003;28056;51.112;0.984;2023-05-10T07:54:03;10;7;
42410;PMS5003;28056;51.112;0.984;2023-05-10T07:56:31;5;5;
42410;PMS5003;28056;51.112;0.984;2023-05-10T07:58:59;5;5;
42410;PMS5003;28056;51.112;0.984;2023-05-10T08:01:29;9;7;
42410;PMS5003;28056;51.112;0.984;2023-05-10T08:03:57;4;4;
42410;PMS5003;28056;51.112;0.984;2023-05-10T08:06:25;7;3;
42410;PMS5003;28056;51.112;0.984;2023-05-10T08:08:53;6;6;
42410;PMS5003;28056;51.112;0.984;2023-05-10T08:11:20;6;6;
42410;PMS5003;28056;51.112;0.984;2023-05-10T08:13:48;6;5;
42410;PMS5003;28056;51.112;0.984;2023-05-10T08:16:16;8;6;
42410;PMS5003;28056;51.112;0.984;2023-05-10T08:18:44;5;5;
42410;PMS5003;28056;51.112;0.984;2023-05-10T08:21:13;6;4;
42410;PMS5003;28056;51.112;0.984;2023-05-10T08:23:40;3;3;
42410;PMS5003;28056;51.112;0.984;2023-05-10T08:26:08;5;4;
42410;PMS5003;28056;51.112;0.984;2023-05-10T08:28:36;6;5;
42410;PMS5003;28056;51.112;0.984;2023-05-10T08:31:04;4;4;
42410;PMS5003;28056;51.112;0.984;2023-05-10T08:33:32;8;4;
42410;PMS5003;28056;51.112;0.984;2023-05-10T08:35:59;8;5;
42410;PMS5003;28056;51.112;0.984;2023-05-10T08:38:27;4;2;
42410;PMS5003;28056;51.112;0.984;2023-05-10T08:40:55;5;5;
42410;PMS5003;28056;51.112;0.984;2023-05-10T08:43:22;5;5;
42410;PMS5003;28056;51.112;0.984;2023-05-10T08:45:54;4;4;
42410;PMS5003;28056;51.112;0.984;2023-05-10T08:48:22;5;5;
42410;PMS5003;28056;51.112;0.984;2023-05-10T08:50:52;5;5;
42410;PMS5003;28056;51.112;0.984;2023-05-10T08:53:20;8;5;
42410;PMS5003;28056;51.112;0.984;2023-05-10T08:55:50;7;7;
42410;PMS5003;28056;51.112;0.984;2023-05-10T08:58:19;5;5;
42410;PMS5003;28056;51.112;0.984;2023-05-10T09:00:48;12;6;
42410;PMS5003;28056;51.112;0.984;2023-05-10T09:03:16;10;6;
42410;PMS5003;28056;51.112;0.984;2023-05-10T09:05:44;5;5;
42410;PMS5003;28056;51.112;0.984;2023-05-10T09:08:12;9;9;
42410;PMS5003;28056;51.112;0.984;2023-05-10T09:10:40;7;6;
42410;PMS5003;28056;51.112;0.984;2023-05-10T09:13:09;6;6;
42410;PMS5003;28056;51.112;0.984;2023-05-10T09:15:37;9;6;
42410;PMS5003;28056;51.112;0.984;2023-05-10T09:18:05;9;6;
42410;PMS5003;28056;51.112;0.984;2023-05-10T09:20:33;9;9;
42410;PMS5003;28056;51.112;0.984;2023-05-10T09:23:00;10;9;
42410;PMS5003;28056;51.112;0.984;2023-05-10T09:25:28;11;9;
42410;PMS5003;28056;51.112;0.984;2023-05-10T09:27:56;7;6;
42410;PMS5003;28056;51.112;0.984;2023-05-10T09:30:24;10;7;
42410;PMS5003;28056;51.112;0.984;2023-05-10T09:32:52;6;6;
42410;PMS5003;28056;51.112;0.984;2023-05-10T09:35:22;9;9;
42410;PMS5003;28056;51.112;0.984;2023-05-10T09:37:51;7;7;
42410;PMS5003;28056;51.112;0.984;2023-05-10T09:40:20;10;7;
42410;PMS5003;28056;51.112;0.984;2023-05-10T09:42:51;10;7;
42410;PMS5003;28056;51.112;0.984;2023-05-10T09:45:21;9;7;
42410;PMS5003;28056;51.112;0.984;2023-05-10T09:47:49;10;7;
42410;PMS5003;28056;51.112;0.984;2023-05-10T09:50:16;9;7;
42410;PMS5003;28056;51.112;0.984;2023-05-10T09:52:46;7;5;
42410;PMS5003;28056;51.112;0.984;2023-05-10T09:55:15;8;7;
42410;PMS5003;28056;51.112;0.984;2023-05-10T09:57:43;7;6;
42410;PMS5003;28056;51.112;0.984;2023-05-10T10:00:11;10;4;
42410;PMS5003;28056;51.112;0.984;2023-05-10T10:02:45;10;7;
42410;PMS5003;28056;51.112;0.984;2023-05-10T10:05:14;7;7;
42410;PMS5003;28056;51.112;0.984;2023-05-10T10:07:41;6;6;
42410;PMS5003;28056;51.112;0.984;2023-05-10T10:10:09;9;8;
42410;PMS5003;28056;51.112;0.984;2023-05-10T10:12:36;11;6;
42410;PMS5003;28056;51.112;0.984;2023-05-10T10:15:04;6;6;
42410;PMS5003;28056;51.112;0.984;2023-05-10T10:17:33;6;3;
42410;PMS5003;28056;51.112;0.984;2023-05-10T10:20:04;6;6;
42410;PMS5003;28056;51.112;0.984;2023-05-10T10:22:32;9;7;
42410;PMS5003;28056;51.112;0.984;2023-05-10T10:24:59;5;5;
42410;PMS5003;28056;51.112;0.984;2023-05-10T10:27:36;7;7;
42410;PMS5003;28056;51.112;0.984;2023-05-10T10:30:14;5;5;
42410;PMS5003;28056;51.112;0.984;2023-05-10T10:33:01;5;4;
42410;PMS5003;28056;51.112;0.984;2023-05-10T10:35:43;8;4;
42410;PMS5003;28056;51.112;0.984;2023-05-10T10:38:13;8;7;
42410;PMS5003;28056;51.112;0.984;2023-05-10T10:40:40;7;5;
42410;PMS5003;28056;51.112;0.984;2023-05-10T10:43:21;6;4;
42410;PMS5003;28056;51.112;0.984;2023-05-10T10:46:09;7;5;
42410;PMS5003;28056;51.112;0.984;2023-05-10T10:48:38;7;5;
42410;PMS5003;28056;51.112;0.984;2023-05-10T10:51:05;5;5;
42410;PMS5003;28056;51.112;0.984;2023-05-10T10:53:33;6;4;
42410;PMS5003;28056;51.112;0.984;2023-05-10T10:56:08;9;6;
42410;PMS5003;28056;51.112;0.984;2023-05-10T10:58:37;5;5;
42410;PMS5003;28056;51.112;0.984;2023-05-10T11:01:13;5;4;
42410;PMS5003;28056;51.112;0.984;2023-05-10T11:03:54;4;3;
42410;PMS5003;28056;51.112;0.984;2023-05-10T11:06:43;2;2;
42410;PMS5003;28056;51.112;0.984;2023-05-10T11:09:11;3;3;
42410;PMS5003;28056;51.112;0.984;2023-05-10T11:11:49;5;3;
42410;PMS5003;28056;51.112;0.984;2023-05-10T11:14:19;6;6;
42410;PMS5003;28056;51.112;0.984;2023-05-10T11:16:48;7;5;
42410;PMS5003;28056;51.112;0.984;2023-05-10T11:19:16;6;6;
42410;PMS5003;28056;51.112;0.984;2023-05-10T11:21:45;9;7;
42410;PMS5003;28056;51.112;0.984;2023-05-10T11:24:13;5;4;
42410;PMS5003;28056;51.112;0.984;2023-05-10T11:26:43;5;3;
42410;PMS5003;28056;51.112;0.984;2023-05-10T11:29:12;5;5;
42410;PMS5003;28056;51.112;0.984;2023-05-10T11:31:43;3;3;
42410;PMS5003;28056;51.112;0.984;2023-05-10T11:34:13;5;5;
42410;PMS5003;28056;51.112;0.984;2023-05-10T11:36:50;5;3;
42410;PMS5003;28056;51.112;0.984;2023-05-10T11:39:19;4;4;
42410;PMS5003;28056;51.112;0.984;2023-05-10T11:41:47;5;5;
42410;PMS5003;28056;51.112;0.984;2023-05-10T11:44:16;3;3;
42410;PMS5003;28056;51.112;0.984;2023-05-10T11:46:43;4;4;
42410;PMS5003;28056;51.112;0.984;2023-05-10T11:49:11;5;4;
42410;PMS5003;28056;51.112;0.984;2023-05-10T11:51:38;2;2;
42410;PMS5003;28056;51.112;0.984;2023-05-10T11:54:06;4;2;
42410;PMS5003;28056;51.112;0.984;2023-05-10T11:56:35;4;4;
42410;PMS5003;28056;51.112;0.984;2023-05-10T11:59:03;7;7;
42410;PMS5003;28056;51.112;0.984;2023-05-10T12:01:30;3;3;
42410;PMS5003;28056;51.112;0.984;2023-05-10T12:03:59;5;4;
42410;PMS5003;28056;51.112;0.984;2023-05-10T12:06:28;4;2;
42410;PMS5003;28056;51.112;0.984;2023-05-10T12:08:57;5;3;
42410;PMS5003;28056;51.112;0.984;2023-05-10T12:11:25;4;2;
42410;PMS5003;28056;51.112;0.984;2023-05-10T12:13:54;5;3;
42410;PMS5003;28056;51.112;0.984;2023-05-10T12:16:23;2;2;
42410;PMS5003;28056;51.112;0.984;2023-05-10T12:18:51;3;3;
42410;PMS5003;28056;51.112;0.984;2023-05-10T12:21:19;4;4;
42410;PMS5003;28056;51.112;0.984;2023-05-10T12:23:49;6;5;
42410;PMS5003;28056;51.112;0.984;2023-05-10T12:26:18;3;3;
42410;PMS5003;28056;51.112;0.984;2023-05-10T12:28:48;5;4;
42410;PMS5003;28056;51.112;0.984;2023-05-10T12:31:15;4;4;
42410;PMS5003;28056;51.112;0.984;2023-05-10T12:33:43;4;2;
42410;PMS5003;28056;51.112;0.984;2023-05-10T12:36:13;5;5;
42410;PMS5003;28056;51.112;0.984;2023-05-10T12:38:42;5;5;
42410;PMS5003;28056;51.112;0.984;2023-05-10T12:41:11;7;4;
42410;PMS5003;28056;51.112;0.984;2023-05-10T12:43:40;5;5;
42410;PMS5003;28056;51.112;0.984;2023-05-10T12:46:08;6;6;
42410;PMS5003;28056;51.112;0.984;2023-05-10T12:48:37;4;4;
42410;PMS5003;28056;51.112;0.984;2023-05-10T12:51:05;8;5;
42410;PMS5003;28056;51.112;0.984;2023-05-10T12:53:33;7;7;
42410;PMS5003;28056;51.112;0.984;2023-05-10T12:56:01;12;8;
42410;PMS5003;28056;51.112;0.984;2023-05-10T12:58:28;7;7;
42410;PMS5003;28056;51.112;0.984;2023-05-10T13:00:57;8;6;
42410;PMS5003;28056;51.112;0.984;2023-05-10T13:03:24;6;6;
42410;PMS5003;28056;51.112;0.984;2023-05-10T13:05:52;12;8;
42410;PMS5003;28056;51.112;0.984;2023-05-10T13:08:20;5;4;
42410;PMS5003;28056;51.112;0.984;2023-05-10T13:10:47;8;6;
42410;PMS5003;28056;51.112;0.984;2023-05-10T13:13:15;12;7;
42410;PMS5003;28056;51.112;0.984;2023-05-10T13:15:43;12;11;
42410;PMS5003;28056;51.112;0.984;2023-05-10T13:18:10;10;7;
42410;PMS5003;28056;51.112;0.984;2023-05-10T13:20:38;11;7;
42410;PMS5003;28056;51.112;0.984;2023-05-10T13:23:05;8;8;
42410;PMS5003;28056;51.112;0.984;2023-05-10T13:25:33;7;6;
42410;PMS5003;28056;51.112;0.984;2023-05-10T13:28:01;8;6;
42410;PMS5003;28056;51.112;0.984;2023-05-10T13:30:28;12;7;
42410;PMS5003;28056;51.112;0.984;2023-05-10T13:32:56;7;7;
42410;PMS5003;28056;51.112;0.984;2023-05-10T13:35:23;9;8;
42410;PMS5003;28056;51.112;0.984;2023-05-10T13:37:50;16;10;
42410;PMS5003;28056;51.112;0.984;2023-05-10T13:40:18;10;10;
42410;PMS5003;28056;51.112;0.984;2023-05-10T13:42:45;8;8;
42410;PMS5003;28056;51.112;0.984;2023-05-10T13:45:12;9;7;
42410;PMS5003;28056;51.112;0.984;2023-05-10T13:47:40;8;8;
42410;PMS5003;28056;51.112;0.984;2023-05-10T13:50:08;9;7;
42410;PMS5003;28056;51.112;0.984;2023-05-10T13:52:35;6;6;
42410;PMS5003;28056;51.112;0.984;2023-05-10T13:55:03;8;7;
42410;PMS5003;28056;51.112;0.984;2023-05-10T13:57:31;9;6;
42410;PMS5003;28056;51.112;0.984;2023-05-10T13:59:59;9;7;
42410;PMS5003;28056;51.112;0.984;2023-05-10T14:02:26;5;5;
42410;PMS5003;28056;51.112;0.984;2023-05-10T14:04:54;6;6;
42410;PMS5003;28056;51.112;0.984;2023-05-10T14:07:21;7;6;
42410;PMS5003;28056;51.112;0.984;2023-05-10T14:09:49;7;6;
42410;PMS5003;28056;51.112;0.984;2023-05-10T14:12:17;13;6;
42410;PMS5003;28056;51.112;0.984;2023-05-10T14:14:44;6;6;
42410;PMS5003;28056;51.112;0.984;2023-05-10T14:17:12;9;7;
42410;PMS5003;28056;51.112;0.984;2023-05-10T14:19:39;9;9;
42410;PMS5003;28056;51.112;0.984;2023-05-10T14:22:07;8;7;
42410;PMS5003;28056;51.112;0.984;2023-05-10T14:24:34;6;6;
42410;PMS5003;28056;51.112;0.984;2023-05-10T14:27:02;7;7;
42410;PMS5003;28056;51.112;0.984;2023-05-10T14:29:30;11;7;
42410;PMS5003;28056;51.112;0.984;2023-05-10T14:31:57;9;7;
42410;PMS5003;28056;51.112;0.984;2023-05-10T14:34:25;8;7;
42410;PMS5003;28056;51.112;0.984;2023-05-10T14:36:52;8;6;
42410;PMS5003;28056;51.112;0.984;2023-05-10T14:39:20;8;5;
42410;PMS5003;28056;51.112;0.984;2023-05-10T14:41:47;7;7;
42410;PMS5003;28056;51.112;0.984;2023-05-10T14:44:14;7;7;
42410;PMS5003;28056;51.112;0.984;2023-05-10T14:46:42;10;9;
42410;PMS5003;28056;51.112;0.984;2023-05-10T14:49:09;10;7;
42410;PMS5003;28056;51.112;0.984;2023-05-10T14:51:37;12;7;
42410;PMS5003;28056;51.112;0.984;2023-05-10T14:54:04;7;5;
42410;PMS5003;28056;51.112;0.984;2023-05-10T14:56:31;6;5;
42410;PMS5003;28056;51.112;0.984;2023-05-10T14:58:59;11;7;
42410;PMS5003;28056;51.112;0.984;2023-05-10T15:01:27;7;5;
42410;PMS5003;28056;51.112;0.984;2023-05-10T15:03:55;5;5;
42410;PMS5003;28056;51.112;0.984;2023-05-10T15:06:23;6;5;
42410;PMS5003;28056;51.112;0.984;2023-05-10T15:08:56;7;5;
42410;PMS5003;28056;51.112;0.984;2023-05-10T15:11:24;8;7;
42410;PMS5003;28056;51.112;0.984;2023-05-10T15:13:52;5;5;
42410;PMS5003;28056;51.112;0.984;2023-05-10T15:16:19;5;5;
42410;PMS5003;28056;51.112;0.984;2023-05-10T15:18:47;5;5;
42410;PMS5003;28056;51.112;0.984;2023-05-10T15:21:15;7;7;
42410;PMS5003;28056;51.112;0.984;2023-05-10T15:23:43;5;5;
42410;PMS5003;28056;51.112;0.984;2023-05-10T15:26:10;5;5;
42410;PMS5003;28056;51.112;0.984;2023-05-10T15:28:37;7;5;
42410;PMS5003;28056;51.112;0.984;2023-05-10T15:31:05;8;5;
42410;PMS5003;28056;51.112;0.984;2023-05-10T15:33:33;7;5;
42410;PMS5003;28056;51.112;0.984;2023-05-10T15:36:00;6;5;
42410;PMS5003;28056;51.112;0.984;2023-05-10T15:38:28;5;3;
42410;PMS5003;28056;51.112;0.984;2023-05-10T15:40:56;3;3;
42410;PMS5003;28056;51.112;0.984;2023-05-10T15:43:24;4;3;
42410;PMS5003;28056;51.112;0.984;2023-05-10T15:45:52;10;6;
42410;PMS5003;28056;51.112;0.984;2023-05-10T15:48:19;4;2;
42410;PMS5003;28056;51.112;0.984;2023-05-10T15:50:47;5;4;
42410;PMS5003;28056;51.112;0.984;2023-05-10T15:53:15;3;3;
42410;PMS5003;28056;51.112;0.984;2023-05-10T15:55:43;7;4;
42410;PMS5003;28056;51.112;0.984;2023-05-10T15:58:10;4;3;
42410;PMS5003;28056;51.112;0.984;2023-05-10T16:00:38;5;3;
42410;PMS5003;28056;51.112;0.984;2023-05-10T16:03:06;4;3;
42410;PMS5003;28056;51.112;0.984;2023-05-10T16:05:34;5;5;
42410;PMS5003;28056;51.112;0.984;2023-05-10T16:08:01;5;4;
42410;PMS5003;28056;51.112;0.984;2023-05-10T16:10:30;2;2;
42410;PMS5003;28056;51.112;0.984;2023-05-10T16:12:59;6;3;
42410;PMS5003;28056;51.112;0.984;2023-05-10T16:15:26;4;3;
42410;PMS5003;28056;51.112;0.984;2023-05-10T16:17:53;4;2;
42410;PMS5003;28056;51.112;0.984;2023-05-10T16:20:21;2;2;
42410;PMS5003;28056;51.112;0.984;2023-05-10T16:22:49;2;2;
42410;PMS5003;28056;51.112;0.984;2023-05-10T16:25:16;2;2;
42410;PMS5003;28056;51.112;0.984;2023-05-10T16:27:44;4;1;
42410;PMS5003;28056;51.112;0.984;2023-05-10T16:30:12;4;3;
42410;PMS5003;28056;51.112;0.984;2023-05-10T16:32:39;4;3;
42410;PMS5003;28056;51.112;0.984;2023-05-10T16:35:07;2;2;
42410;PMS5003;28056;51.112;0.984;2023-05-10T16:37:34;2;2;
42410;PMS5003;28056;51.112;0.984;2023-05-10T16:40:02;2;2;
42410;PMS5003;28056;51.112;0.984;2023-05-10T16:42:31;0;0;
42410;PMS5003;28056;51.112;0.984;2023-05-10T16:44:58;2;1;
42410;PMS5003;28056;51.112;0.984;2023-05-10T16:47:26;1;1;
42410;PMS5003;28056;51.112;0.984;2023-05-10T16:49:57;1;1;